createdAt,value
2023-04-15T00:01:06.103Z,737.42
2023-04-15T00:06:09.773Z,733.60
2023-04-15T00:11:12.815Z,738.95
2023-04-15T00:16:15.705Z,736.25
2023-04-15T00:21:17.565Z,734.97
2023-04-15T00:26:19.821Z,735.25
2023-04-15T00:31:25.007Z,733.83
2023-04-15T00:36:27.696Z,730.78
2023-04-15T00:41:32.419Z,733.33
2023-04-15T00:46:38.253Z,734.78
2023-04-15T00:51:46.124Z,731.92
2023-04-15T00:56:48.850Z,730.10
2023-04-15T01:01:52.318Z,726.87
2023-04-15T01:06:54.934Z,728.10
2023-04-15T01:12:00.745Z,722.43
2023-04-15T01:17:03.375Z,729.30
2023-04-15T01:22:05.860Z,734.90
2023-04-15T01:27:07.826Z,731.23
2023-04-15T01:32:12.229Z,721.43
2023-04-15T01:37:35.539Z,722.87
2023-04-15T01:42:38.866Z,723.70
2023-04-15T01:47:42.685Z,727.07
2023-04-15T01:52:47.448Z,725.47
2023-04-15T01:57:50.600Z,728.30
2023-04-15T02:02:54.200Z,719.27
2023-04-15T02:08:00.122Z,720.10
2023-04-15T02:13:03.224Z,720.10
2023-04-15T02:18:13.976Z,718.50
2023-04-15T02:23:17.889Z,722.20
2023-04-15T02:28:23.965Z,721.60
2023-04-15T02:33:27.395Z,717.92
2023-04-15T02:38:32.030Z,719.63
2023-04-15T02:43:37.592Z,717.95
2023-04-15T02:48:41.704Z,720.63
2023-04-15T02:53:48.946Z,718.20
2023-04-15T02:58:52.338Z,714.15
2023-04-15T03:04:14.497Z,717.90
2023-04-15T03:09:17.715Z,723.83
2023-04-15T03:14:21.397Z,722.15
2023-04-15T03:19:31.971Z,722.22
2023-04-15T03:24:36.339Z,715.83
2023-04-15T03:29:39.524Z,716.50
2023-04-15T03:34:51.210Z,717.67
2023-04-15T03:39:54.445Z,711.77
2023-04-15T03:44:57.551Z,718.80
2023-04-15T03:50:00.784Z,712.78
2023-04-15T03:55:05.014Z,712.65
2023-04-15T04:05:30.030Z,715.05
2023-04-15T04:10:33.074Z,714.60
2023-04-15T04:15:36.384Z,723.00
2023-04-15T04:20:41.433Z,713.87
2023-04-15T04:25:44.543Z,720.70
2023-04-15T04:30:47.693Z,713.80
2023-04-15T04:35:50.910Z,713.57
2023-04-15T04:40:56.634Z,713.40
2023-04-15T04:46:02.457Z,712.90
2023-04-15T04:51:05.674Z,714.57
2023-04-15T04:56:10.615Z,717.30
2023-04-15T05:01:13.762Z,714.77
2023-04-15T05:06:22.705Z,719.10
2023-04-15T05:11:34.496Z,712.78
2023-04-15T05:16:38.128Z,711.10
2023-04-15T05:21:41.220Z,710.70
2023-04-15T05:26:44.939Z,708.33
2023-04-15T05:31:49.356Z,713.07
2023-04-15T05:36:56.505Z,713.27
2023-04-15T05:42:01.183Z,718.30
2023-04-15T05:47:07.261Z,719.20
2023-04-15T05:52:10.365Z,711.13
2023-04-15T05:57:13.439Z,715.90
2023-04-15T06:02:17.977Z,707.60
2023-04-15T06:07:21.182Z,717.10
2023-04-15T06:12:24.223Z,712.40
2023-04-15T06:17:27.418Z,719.50
2023-04-15T06:22:32.080Z,719.47
2023-04-15T06:27:35.566Z,721.93
2023-04-15T06:32:39.814Z,727.33
2023-04-15T06:37:42.909Z,733.20
2023-04-15T06:42:46.575Z,730.30
2023-04-15T06:47:49.967Z,726.17
2023-04-15T06:52:54.774Z,728.38
2023-04-15T06:58:00.779Z,726.25
2023-04-15T07:03:03.971Z,736.80
2023-04-15T07:08:09.706Z,741.28
2023-04-15T07:13:13.852Z,741.70
2023-04-15T07:18:19.947Z,748.60
2023-04-15T07:23:23.321Z,746.10
2023-04-15T07:28:26.990Z,749.63
2023-04-15T07:33:30.476Z,745.17
2023-04-15T07:38:33.927Z,751.93
2023-04-15T07:43:37.479Z,754.08
2023-04-15T07:48:42.722Z,752.80
2023-04-15T07:53:47.795Z,741.70
2023-04-15T07:58:52.162Z,755.87
2023-04-15T08:03:57.281Z,748.27
2023-04-15T08:09:01.094Z,750.90
2023-04-15T08:14:04.737Z,748.37
2023-04-15T08:19:07.831Z,752.43
2023-04-15T08:24:11.583Z,768.23
2023-04-15T08:29:21.462Z,761.17
2023-04-15T08:34:26.205Z,753.22
2023-04-15T08:39:30.361Z,761.78
2023-04-15T08:44:35.048Z,757.63
2023-04-15T08:50:01.586Z,754.15
2023-04-15T08:55:16.895Z,755.30
2023-04-15T09:00:22.852Z,753.90
2023-04-15T09:05:31.314Z,764.40
2023-04-15T09:10:34.494Z,756.65
2023-04-15T09:15:40.583Z,756.22
2023-04-15T09:20:46.754Z,755.20
2023-04-15T09:25:59.206Z,760.40
2023-04-15T09:31:02.770Z,767.23
2023-04-15T09:36:10.726Z,776.70
2023-04-15T09:41:22.819Z,786.20
2023-04-15T09:46:47.966Z,781.73
2023-04-15T09:52:01.675Z,781.67
2023-04-15T09:57:10.594Z,827.00
2023-04-15T10:02:14.243Z,811.57
2023-04-15T10:07:21.036Z,800.63
2023-04-15T10:12:26.415Z,785.25
2023-04-15T10:17:46.975Z,757.10
2023-04-15T10:22:52.978Z,776.47
2023-04-15T10:27:57.181Z,817.30
2023-04-15T10:33:02.963Z,895.13
2023-04-15T10:38:46.038Z,787.43
2023-04-15T10:44:17.508Z,860.17
2023-04-15T10:49:26.237Z,887.60
2023-04-15T10:54:29.222Z,853.10
2023-04-15T10:59:38.908Z,899.63
2023-04-15T11:04:56.292Z,851.97
2023-04-15T11:10:00.250Z,835.08
2023-04-15T11:15:45.248Z,849.93
2023-04-15T11:21:15.426Z,860.53
2023-04-15T11:26:29.143Z,820.27
2023-04-15T11:31:33.111Z,829.47
2023-04-15T11:36:36.198Z,829.17
2023-04-15T11:41:43.281Z,844.40
2023-04-15T11:46:47.182Z,819.10
2023-04-15T11:51:50.245Z,814.50
2023-04-15T11:56:54.601Z,834.80
2023-04-15T12:01:58.346Z,830.03
2023-04-15T12:07:07.596Z,848.42
2023-04-15T12:12:11.846Z,847.20
2023-04-15T12:17:13.742Z,830.72
2023-04-15T12:22:17.557Z,833.72
2023-04-15T12:47:37.956Z,817.53
2023-04-15T12:52:39.879Z,827.63
2023-04-15T12:57:41.986Z,853.73
2023-04-15T13:02:44.619Z,846.67
2023-04-15T13:07:47.062Z,805.17
2023-04-15T13:12:52.680Z,729.30
2023-04-15T13:17:54.590Z,709.03
2023-04-15T13:22:56.398Z,777.77
2023-04-15T13:27:58.252Z,795.67
2023-04-15T13:33:00.614Z,841.53
2023-04-15T13:38:02.555Z,886.67
2023-04-15T13:43:04.766Z,834.55
2023-04-15T13:48:06.753Z,848.23
2023-04-15T13:53:08.673Z,841.00
2023-04-15T13:58:11.666Z,835.77
2023-04-15T14:03:13.674Z,839.97
2023-04-15T14:08:15.702Z,796.20
2023-04-15T14:13:19.475Z,814.57
2023-04-15T14:18:21.527Z,799.47
2023-04-15T14:23:23.778Z,798.23
2023-04-15T14:28:25.868Z,789.10
2023-04-15T14:33:27.715Z,835.20
2023-04-15T14:38:29.529Z,823.03
2023-04-15T14:43:31.592Z,786.00
2023-04-15T14:48:33.492Z,782.38
2023-04-15T14:53:35.409Z,773.85
2023-04-15T14:58:37.402Z,777.92
2023-04-15T15:03:39.601Z,775.83
2023-04-15T15:08:41.712Z,772.72
2023-04-15T15:13:43.538Z,772.60
2023-04-15T15:18:45.643Z,763.42
2023-04-15T15:23:48.524Z,770.78
2023-04-15T15:28:50.881Z,763.50
2023-04-15T15:33:53.030Z,766.28
2023-04-15T15:38:54.929Z,765.58
2023-04-15T15:43:56.766Z,763.72
2023-04-15T15:49:02.981Z,770.00
2023-04-15T15:54:06.555Z,766.92
2023-04-15T15:59:08.382Z,764.00
2023-04-15T16:04:11.624Z,766.92
2023-04-15T16:09:14.031Z,761.55
2023-04-15T16:14:15.987Z,764.67
2023-04-15T16:19:17.858Z,765.13
2023-04-15T16:24:22.768Z,762.85
2023-04-15T16:29:26.045Z,760.05
2023-04-15T16:34:29.581Z,763.13
2023-04-15T16:39:31.487Z,764.05
2023-04-15T16:44:34.385Z,756.83
2023-04-15T16:52:09.390Z,752.85
2023-04-15T16:57:11.245Z,757.05
2023-04-15T17:02:13.846Z,753.20
2023-04-15T17:07:17.208Z,751.72
2023-04-15T17:12:19.049Z,749.13
2023-04-15T17:17:22.769Z,753.30
2023-04-15T17:22:26.442Z,750.38
2023-04-15T17:27:30.196Z,754.22
2023-04-15T17:32:37.185Z,748.60
2023-04-15T17:38:00.292Z,744.35
2023-04-15T17:43:22.446Z,755.80
2023-04-15T17:48:44.232Z,752.97
2023-04-15T17:54:06.805Z,743.65
2023-04-15T17:59:29.474Z,749.47
2023-04-15T18:04:54.975Z,743.08
2023-04-15T18:10:21.710Z,750.65
2023-04-15T18:15:46.919Z,750.30
2023-04-15T18:21:10.581Z,745.97
2023-04-15T18:26:13.917Z,748.47
2023-04-15T18:31:15.974Z,734.63
2023-04-15T18:36:17.974Z,731.50
2023-04-15T18:41:19.942Z,738.60
2023-04-15T18:46:22.220Z,737.53
2023-04-15T18:51:24.132Z,740.40
2023-04-15T18:56:26.177Z,739.23
2023-04-15T19:01:28.126Z,729.53
2023-04-15T19:06:30.039Z,732.63
2023-04-15T19:11:31.926Z,731.43
2023-04-15T19:16:33.825Z,726.72
2023-04-15T19:21:35.828Z,730.13
2023-04-15T19:26:37.747Z,735.83
2023-04-15T19:31:40.405Z,728.60
2023-04-15T19:36:42.711Z,732.22
2023-04-15T19:41:44.869Z,731.72
2023-04-15T19:46:49.927Z,730.63
2023-04-15T19:51:51.861Z,725.58
2023-04-15T19:56:53.694Z,726.38
2023-04-15T20:01:55.624Z,726.90
2023-04-15T20:06:57.515Z,726.92
2023-04-15T20:12:47.736Z,733.38
2023-04-15T20:17:21.208Z,735.58
2023-04-15T20:22:23.038Z,733.55
2023-04-15T20:27:24.848Z,724.42
2023-04-15T20:32:28.386Z,724.10
2023-04-15T20:37:33.052Z,730.50
2023-04-15T20:42:34.988Z,722.22
2023-04-15T20:47:38.424Z,727.63
2023-04-15T20:52:41.744Z,724.00
2023-04-15T20:57:43.639Z,730.28
2023-04-15T21:02:46.037Z,726.33
2023-04-15T21:07:48.445Z,730.90
2023-04-15T21:12:50.545Z,726.75
2023-04-15T21:17:54.618Z,721.95
2023-04-15T21:22:57.199Z,724.45
2023-04-15T21:28:06.521Z,721.47
2023-04-15T21:33:08.741Z,724.92
2023-04-15T21:38:11.336Z,730.53
2023-04-15T21:43:13.231Z,722.65
2023-04-15T21:48:17.155Z,726.03
2023-04-15T21:53:19.061Z,731.63
2023-04-15T21:58:21.946Z,728.63
2023-04-15T22:03:24.470Z,727.10
2023-04-15T22:08:27.649Z,724.05
2023-04-15T22:13:30.214Z,729.05
2023-04-15T22:18:37.718Z,722.33
2023-04-15T22:23:42.878Z,726.30
2023-04-15T22:28:45.779Z,727.33
2023-04-15T22:33:49.932Z,734.03
2023-04-15T22:38:58.143Z,729.25
2023-04-15T22:44:00.884Z,730.70
2023-04-15T22:49:02.905Z,727.78
2023-04-15T22:54:04.896Z,729.30
2023-04-15T22:59:07.255Z,726.42
2023-04-15T23:04:22.659Z,722.28
2023-04-15T23:09:26.347Z,724.55
2023-04-15T23:14:30.155Z,730.55
2023-04-15T23:19:32.035Z,729.25
2023-04-15T23:24:34.856Z,736.83
2023-04-15T23:29:36.780Z,725.10
2023-04-15T23:34:39.204Z,723.58
2023-04-15T23:39:41.403Z,728.67
2023-04-15T23:44:43.253Z,723.75
2023-04-15T23:49:52.940Z,730.65
2023-04-15T23:54:54.759Z,725.47
2023-04-15T23:59:56.623Z,730.92
